createdAt,value
2022-12-15T00:01:25.728Z,99877.25
2022-12-15T00:04:11.014Z,99869.53
2022-12-15T00:06:56.326Z,99852.94
2022-12-15T00:09:41.002Z,99842.91
2022-12-15T00:12:25.867Z,99849.09
2022-12-15T00:15:10.644Z,99852.31
2022-12-15T00:17:55.364Z,99876.44
2022-12-15T00:20:40.118Z,99872.72
2022-12-15T00:23:27.153Z,99866.25
2022-12-15T00:26:12.199Z,99875.13
2022-12-15T00:28:56.951Z,99872.47
2022-12-15T00:31:42.187Z,99868.13
2022-12-15T00:34:27.480Z,99865.63
2022-12-15T00:37:12.801Z,99860.97
2022-12-15T00:39:40.240Z,99878.94
2022-12-15T00:42:08.056Z,99878.72
2022-12-15T00:44:34.494Z,99872.59
2022-12-15T00:47:01.172Z,99882.50
2022-12-15T00:49:48.128Z,99881.28
2022-12-15T00:52:34.440Z,99890.22
2022-12-15T00:55:19.056Z,99892.25
2022-12-15T00:58:04.288Z,99880.34
2022-12-15T01:00:49.555Z,99888.44
2022-12-15T01:03:42.033Z,99912.09
2022-12-15T01:06:33.161Z,99907.75
2022-12-15T01:09:18.378Z,99902.22
2022-12-15T01:12:04.141Z,99891.66
2022-12-15T01:14:50.482Z,99891.38
2022-12-15T01:17:36.265Z,99895.06
2022-12-15T01:20:20.045Z,99885.34
2022-12-15T01:22:54.690Z,99882.19
2022-12-15T01:25:24.139Z,99884.88
2022-12-15T01:27:51.156Z,99882.28
2022-12-15T01:30:23.506Z,99881.84
2022-12-15T01:32:50.174Z,99885.41
2022-12-15T01:35:17.605Z,99883.09
2022-12-15T01:37:44.866Z,99882.25
2022-12-15T01:40:36.960Z,99885.97
2022-12-15T01:43:03.401Z,99886.41
2022-12-15T01:45:29.718Z,99886.53
2022-12-15T01:48:09.278Z,99883.69
2022-12-15T01:50:42.190Z,99894.53
2022-12-15T01:53:10.651Z,99898.59
2022-12-15T01:55:38.939Z,99895.16
2022-12-15T01:58:08.921Z,99894.91
2022-12-15T02:00:35.825Z,99905.97
2022-12-15T02:03:04.417Z,99904.59
2022-12-15T02:05:31.820Z,99907.34
2022-12-15T02:08:00.517Z,99898.47
2022-12-15T02:10:34.335Z,99900.25
2022-12-15T02:13:28.713Z,99899.25
2022-12-15T02:16:24.336Z,99897.13
2022-12-15T02:19:17.783Z,99886.81
2022-12-15T02:21:56.548Z,99888.16
2022-12-15T02:24:25.605Z,99883.38
2022-12-15T02:26:55.033Z,99885.78
2022-12-15T02:29:49.254Z,99883.69
2022-12-15T02:32:26.437Z,99891.72
2022-12-15T02:35:01.714Z,99879.53
2022-12-15T02:37:39.721Z,99878.81
2022-12-15T02:40:10.063Z,99884.66
2022-12-15T02:42:42.468Z,99885.44
2022-12-15T02:45:13.991Z,99885.50
2022-12-15T02:48:11.752Z,99888.13
2022-12-15T02:51:20.397Z,99878.50
2022-12-15T02:54:06.650Z,99880.09
2022-12-15T02:56:50.095Z,99877.91
2022-12-15T02:59:37.784Z,99879.50
2022-12-15T03:02:06.504Z,99891.66
2022-12-15T03:04:33.927Z,99886.91
2022-12-15T03:07:03.853Z,99889.00
2022-12-15T03:09:33.287Z,99881.50
2022-12-15T03:11:59.905Z,99875.88
2022-12-15T03:14:26.871Z,99881.84
2022-12-15T03:16:54.677Z,99892.75
2022-12-15T03:19:21.283Z,99899.13
2022-12-15T03:21:47.700Z,99900.22
2022-12-15T03:24:14.103Z,99895.16
2022-12-15T03:26:40.480Z,99892.84
2022-12-15T03:29:07.214Z,99896.13
2022-12-15T03:31:33.738Z,99891.06
2022-12-15T03:34:00.155Z,99891.06
2022-12-15T03:36:26.608Z,99883.34
2022-12-15T03:38:53.057Z,99879.00
2022-12-15T03:41:20.029Z,99882.97
2022-12-15T03:43:46.539Z,99891.78
2022-12-15T03:46:16.317Z,99898.34
2022-12-15T03:48:42.709Z,99908.50
2022-12-15T03:51:09.295Z,99903.69
2022-12-15T03:53:35.762Z,99905.13
2022-12-15T03:56:02.188Z,99914.97
2022-12-15T03:58:28.592Z,99915.22
2022-12-15T04:00:55.470Z,99922.22
2022-12-15T04:03:22.016Z,99928.13
2022-12-15T04:05:48.712Z,99932.31
2022-12-15T04:08:15.241Z,99941.03
2022-12-15T04:10:43.481Z,99947.41
2022-12-15T04:13:11.540Z,99952.28
2022-12-15T04:15:39.813Z,99944.00
2022-12-15T04:18:09.843Z,99931.47
2022-12-15T04:20:37.064Z,99935.16
2022-12-15T04:23:03.928Z,99921.22
2022-12-15T04:25:48.943Z,99927.50
2022-12-15T04:28:33.645Z,99947.13
2022-12-15T04:31:27.520Z,99936.41
2022-12-15T04:34:27.071Z,99946.72
2022-12-15T04:37:12.839Z,99944.84
2022-12-15T04:40:01.224Z,99934.91
2022-12-15T04:42:47.083Z,99935.78
2022-12-15T04:45:33.207Z,99936.16
2022-12-15T04:48:18.316Z,99949.53
2022-12-15T04:51:03.015Z,99951.41
2022-12-15T04:53:47.680Z,99958.19
2022-12-15T04:56:33.999Z,99972.13
2022-12-15T04:59:19.202Z,99972.13
2022-12-15T05:02:04.453Z,99982.34
2022-12-15T05:04:49.698Z,99979.41
2022-12-15T05:07:34.891Z,99970.22
2022-12-15T05:10:20.116Z,99975.59
2022-12-15T05:13:04.883Z,99964.72
2022-12-15T05:15:51.280Z,99957.25
2022-12-15T05:18:36.363Z,99961.50
2022-12-15T05:21:21.633Z,99973.34
2022-12-15T05:24:06.758Z,99974.22
2022-12-15T05:26:53.258Z,99982.78
2022-12-15T05:29:39.399Z,99973.19
2022-12-15T05:32:07.119Z,99968.38
2022-12-15T05:34:35.556Z,99982.19
2022-12-15T05:37:03.707Z,99989.72
2022-12-15T05:39:30.190Z,99991.22
2022-12-15T05:41:57.285Z,99996.09
2022-12-15T05:44:26.785Z,99991.31
2022-12-15T05:46:53.307Z,99985.47
2022-12-15T05:49:20.489Z,99989.16
2022-12-15T05:51:47.993Z,99986.28
2022-12-15T05:54:16.852Z,99992.63
2022-12-15T05:56:43.541Z,100005.66
2022-12-15T05:59:10.315Z,100004.50
2022-12-15T06:01:36.773Z,100014.81
2022-12-15T06:04:04.254Z,100028.28
2022-12-15T06:06:30.657Z,100038.19
2022-12-15T06:08:57.097Z,100037.13
2022-12-15T06:11:23.797Z,100024.25
2022-12-15T06:13:50.337Z,100011.06
2022-12-15T06:16:21.966Z,100031.06
2022-12-15T06:18:52.470Z,100030.84
2022-12-15T06:21:25.912Z,100023.44
2022-12-15T06:23:53.196Z,100028.44
2022-12-15T06:26:22.622Z,100037.63
2022-12-15T06:28:50.040Z,100045.97
2022-12-15T06:31:19.190Z,100045.75
2022-12-15T06:33:45.697Z,100055.72
2022-12-15T06:36:14.612Z,100059.97
2022-12-15T06:38:44.191Z,100057.41
2022-12-15T06:41:13.361Z,100070.22
2022-12-15T06:43:40.360Z,100060.25
2022-12-15T06:46:07.570Z,100079.50
2022-12-15T06:48:34.138Z,100063.19
2022-12-15T06:51:05.342Z,100056.13
2022-12-15T06:53:32.924Z,100062.97
2022-12-15T06:56:04.052Z,100062.97
2022-12-15T06:58:30.511Z,100073.22
2022-12-15T07:00:57.298Z,100069.44
2022-12-15T07:03:24.528Z,100070.09
2022-12-15T07:06:11.141Z,100060.31
2022-12-15T07:08:41.343Z,100065.94
2022-12-15T07:11:11.429Z,100074.75
2022-12-15T07:13:39.203Z,100066.44
2022-12-15T07:16:07.285Z,100086.41
2022-12-15T07:18:33.916Z,100086.78
2022-12-15T07:21:05.811Z,100076.56
2022-12-15T07:23:53.653Z,100080.38
2022-12-15T07:26:20.842Z,100088.16
2022-12-15T07:28:47.759Z,100089.44
2022-12-15T07:31:15.446Z,100088.66
2022-12-15T07:33:42.401Z,100089.44
2022-12-15T07:36:09.172Z,100084.16
2022-12-15T07:38:35.828Z,100089.75
2022-12-15T07:41:04.956Z,100105.44
2022-12-15T07:43:32.659Z,100110.19
2022-12-15T07:45:59.630Z,100120.19
2022-12-15T07:48:27.222Z,100133.22
2022-12-15T07:51:05.104Z,100140.56
2022-12-15T07:53:36.104Z,100141.59
2022-12-15T07:56:09.073Z,100128.78
2022-12-15T07:58:36.747Z,100135.00
2022-12-15T08:01:05.987Z,100141.34
2022-12-15T08:03:33.469Z,100144.31
2022-12-15T08:06:05.464Z,100151.91
2022-12-15T08:08:33.272Z,100161.09
2022-12-15T08:11:04.433Z,100160.53
2022-12-15T08:14:01.442Z,100161.56
2022-12-15T08:16:17.271Z,100164.63
2022-12-15T08:18:43.743Z,100163.34
2022-12-15T08:21:10.824Z,100163.41
2022-12-15T08:23:38.945Z,100171.38
2022-12-15T08:26:12.297Z,100174.91
2022-12-15T08:28:40.244Z,100182.78
2022-12-15T08:31:12.391Z,100176.00
2022-12-15T08:33:39.729Z,100174.47
2022-12-15T08:36:09.201Z,100189.59
2022-12-15T08:38:38.519Z,100192.16
2022-12-15T08:41:17.198Z,100200.31
2022-12-15T08:43:48.625Z,100196.88
2022-12-15T08:46:17.572Z,100191.81
2022-12-15T08:48:44.509Z,100205.25
2022-12-15T08:51:11.909Z,100204.00
2022-12-15T08:53:38.686Z,100207.28
2022-12-15T08:56:08.085Z,100213.25
2022-12-15T08:58:34.805Z,100210.19
2022-12-15T09:01:06.897Z,100220.16
2022-12-15T09:03:35.480Z,100218.53
2022-12-15T09:06:06.417Z,100221.25
2022-12-15T09:08:33.608Z,100219.47
2022-12-15T09:11:01.161Z,100221.06
2022-12-15T09:13:28.635Z,100228.03
2022-12-15T09:16:09.223Z,100224.38
2022-12-15T09:18:36.594Z,100227.06
2022-12-15T09:21:06.127Z,100231.38
2022-12-15T09:23:33.642Z,100229.06
2022-12-15T09:26:05.412Z,100230.41
2022-12-15T09:28:32.150Z,100232.59
2022-12-15T09:31:07.074Z,100237.44
2022-12-15T09:33:34.319Z,100245.28
2022-12-15T09:36:01.361Z,100244.47
2022-12-15T09:38:27.907Z,100240.25
2022-12-15T09:40:54.361Z,100232.25
2022-12-15T09:43:46.160Z,100236.81
2022-12-15T09:46:38.428Z,100232.06
2022-12-15T09:49:25.199Z,100238.19
2022-12-15T09:52:10.370Z,100245.63
2022-12-15T09:54:38.679Z,100248.44
2022-12-15T09:57:11.544Z,100246.53
2022-12-15T10:00:05.246Z,100250.09
2022-12-15T10:02:58.200Z,100245.41
2022-12-15T10:05:57.611Z,100248.66
2022-12-15T10:08:24.185Z,100254.22
2022-12-15T10:10:58.595Z,100251.03
2022-12-15T10:13:53.488Z,100257.72
2022-12-15T10:16:28.043Z,100251.25
2022-12-15T10:19:07.386Z,100252.38
2022-12-15T10:21:34.698Z,100262.06
2022-12-15T10:24:31.575Z,100257.00
2022-12-15T10:27:13.722Z,100260.75
2022-12-15T10:29:50.830Z,100255.78
2022-12-15T10:32:31.797Z,100248.34
2022-12-15T10:34:58.266Z,100247.22
2022-12-15T10:37:24.756Z,100247.22
2022-12-15T10:39:51.422Z,100244.34
2022-12-15T10:42:23.780Z,100249.38
2022-12-15T10:44:55.519Z,100249.16
2022-12-15T10:47:27.694Z,100249.38
2022-12-15T10:49:56.201Z,100257.47
2022-12-15T10:52:36.585Z,100254.28
2022-12-15T10:55:36.262Z,100253.44
2022-12-15T10:58:05.457Z,100253.19
2022-12-15T11:00:33.236Z,100255.03
2022-12-15T11:03:00.118Z,100258.28
2022-12-15T11:05:27.350Z,100254.84
2022-12-15T11:07:56.248Z,100259.38
2022-12-15T11:10:51.638Z,100260.19
2022-12-15T11:13:20.692Z,100268.75
2022-12-15T11:15:51.806Z,100263.66
2022-12-15T11:18:33.567Z,100260.72
2022-12-15T11:21:09.897Z,100263.94
2022-12-15T11:23:55.194Z,100258.91
2022-12-15T11:26:46.858Z,100261.09
2022-12-15T11:29:21.698Z,100266.44
2022-12-15T11:31:48.929Z,100265.38
2022-12-15T11:34:18.306Z,100268.59
2022-12-15T11:37:10.688Z,100268.84
2022-12-15T11:39:41.869Z,100263.81
2022-12-15T11:42:20.163Z,100267.53
2022-12-15T11:45:01.995Z,100266.47
2022-12-15T11:47:44.863Z,100279.84
2022-12-15T11:50:53.490Z,100278.78
2022-12-15T11:53:32.074Z,100281.22
2022-12-15T11:56:18.024Z,100273.16
2022-12-15T11:59:09.066Z,100283.09
2022-12-15T12:02:00.712Z,100280.69
2022-12-15T12:05:00.324Z,100289.22
2022-12-15T12:07:52.988Z,100291.94
2022-12-15T12:10:25.444Z,100295.44
2022-12-15T12:13:09.796Z,100293.28
2022-12-15T12:15:45.423Z,100290.63
2022-12-15T12:18:16.193Z,100291.69
2022-12-15T12:20:52.156Z,100293.56
2022-12-15T12:23:42.084Z,100290.38
2022-12-15T12:26:19.390Z,100289.28
2022-12-15T12:29:28.140Z,100291.72
2022-12-15T12:32:03.832Z,100293.03
2022-12-15T12:34:39.913Z,100285.53
2022-12-15T12:37:21.622Z,100292.25
2022-12-15T12:39:51.880Z,100296.78
2022-12-15T12:42:38.548Z,100300.81
2022-12-15T12:45:05.646Z,100301.63
2022-12-15T12:47:37.002Z,100289.84
2022-12-15T12:50:14.856Z,100296.03
2022-12-15T12:52:55.472Z,100304.56
2022-12-15T12:55:42.182Z,100303.50
2022-12-15T12:58:45.364Z,100288.53
2022-12-15T13:01:20.016Z,100287.72
2022-12-15T13:04:06.487Z,100292.53
2022-12-15T13:06:35.629Z,100296.81
2022-12-15T13:09:22.752Z,100298.94
2022-12-15T13:11:49.345Z,100300.28
2022-12-15T13:14:40.005Z,100298.41
2022-12-15T13:17:26.576Z,100301.09
2022-12-15T13:19:53.937Z,100288.25
2022-12-15T13:22:27.237Z,100288.78
2022-12-15T13:24:56.733Z,100286.38
2022-12-15T13:27:23.837Z,100283.16
2022-12-15T13:30:01.766Z,100273.25
2022-12-15T13:32:37.243Z,100282.06
2022-12-15T13:35:31.411Z,100287.19
2022-12-15T13:38:02.853Z,100291.47
2022-12-15T13:40:50.433Z,100287.44
2022-12-15T13:43:26.389Z,100293.03
2022-12-15T13:46:00.286Z,100279.41
2022-12-15T13:48:31.337Z,100290.38
2022-12-15T13:51:12.933Z,100301.34
2022-12-15T13:53:51.452Z,100304.03
2022-12-15T13:56:43.086Z,100301.63
2022-12-15T13:59:20.250Z,100301.91
2022-12-15T14:01:51.974Z,100303.75
2022-12-15T14:04:19.589Z,100299.75
2022-12-15T14:06:56.897Z,100304.31
2022-12-15T14:09:40.911Z,100306.97
2022-12-15T14:12:13.656Z,100303.75
2022-12-15T14:14:47.298Z,100305.91
2022-12-15T14:17:18.289Z,100302.72
2022-12-15T14:19:51.189Z,100307.50
2022-12-15T14:22:30.174Z,100305.34
2022-12-15T14:25:29.237Z,100305.66
2022-12-15T14:27:56.575Z,100320.38
2022-12-15T14:30:29.204Z,100319.84
2022-12-15T14:33:13.670Z,100319.00
2022-12-15T14:35:49.293Z,100316.06
2022-12-15T14:39:21.161Z,100308.53
2022-12-15T14:41:49.160Z,100312.06
2022-12-15T14:44:37.611Z,100310.13
2022-12-15T14:47:27.387Z,100317.69
2022-12-15T14:49:56.679Z,100321.91
2022-12-15T14:52:34.854Z,100314.38
2022-12-15T14:55:04.122Z,100317.56
2022-12-15T14:57:44.596Z,100318.97
2022-12-15T15:00:26.120Z,100319.22
2022-12-15T15:03:34.192Z,100318.97
2022-12-15T15:06:21.088Z,100317.09
2022-12-15T15:08:50.297Z,100313.56
2022-12-15T15:11:36.291Z,100308.97
2022-12-15T15:14:08.085Z,100311.09
2022-12-15T15:16:34.989Z,100310.00
2022-12-15T15:19:04.370Z,100312.41
2022-12-15T15:21:36.518Z,100326.06
2022-12-15T15:24:12.174Z,100308.88
2022-12-15T15:26:40.032Z,100309.72
2022-12-15T15:29:43.093Z,100309.59
2022-12-15T15:32:16.631Z,100305.03
2022-12-15T15:34:44.944Z,100299.16
2022-12-15T15:37:23.480Z,100296.75
2022-12-15T15:39:51.457Z,100293.06
2022-12-15T15:42:17.895Z,100306.97
2022-12-15T15:44:44.965Z,100312.16
2022-12-15T15:47:31.729Z,100306.88
2022-12-15T15:49:59.866Z,100307.91
2022-12-15T15:52:29.673Z,100308.50
2022-12-15T15:54:56.245Z,100307.69
2022-12-15T15:57:22.666Z,100320.22
2022-12-15T15:59:49.235Z,100315.06
2022-12-15T16:02:16.046Z,100312.69
2022-12-15T16:04:43.764Z,100307.09
2022-12-15T16:07:28.945Z,100303.00
2022-12-15T16:09:56.691Z,100301.56
2022-12-15T16:12:54.153Z,100303.56
2022-12-15T16:15:23.507Z,100311.09
2022-12-15T16:17:50.056Z,100316.81
2022-12-15T16:20:18.602Z,100310.75
2022-12-15T16:22:48.779Z,100319.03
2022-12-15T16:25:19.250Z,100314.88
2022-12-15T16:27:45.803Z,100314.50
2022-12-15T16:30:18.361Z,100309.56
2022-12-15T16:32:44.775Z,100309.84
2022-12-15T16:35:12.476Z,100311.66
2022-12-15T16:37:40.028Z,100319.72
2022-12-15T16:40:14.852Z,100329.09
2022-12-15T16:42:41.523Z,100324.53
2022-12-15T16:45:19.122Z,100325.25
2022-12-15T16:47:46.089Z,100321.59
2022-12-15T16:50:15.066Z,100321.44
2022-12-15T16:52:43.953Z,100330.75
2022-12-15T16:55:19.715Z,100335.81
2022-12-15T16:57:47.264Z,100340.97
2022-12-15T17:00:19.741Z,100336.38
2022-12-15T17:02:46.634Z,100339.75
2022-12-15T17:05:13.494Z,100338.56
2022-12-15T17:07:40.529Z,100341.75
2022-12-15T17:10:07.764Z,100335.59
2022-12-15T17:12:34.201Z,100345.59
2022-12-15T17:15:02.410Z,100346.78
2022-12-15T17:17:31.068Z,100354.28
2022-12-15T17:20:27.828Z,100349.50
2022-12-15T17:22:47.629Z,100355.28
2022-12-15T17:25:17.494Z,100353.50
2022-12-15T17:27:44.825Z,100370.38
2022-12-15T17:30:14.446Z,100360.69
2022-12-15T17:32:41.257Z,100375.56
2022-12-15T17:35:08.055Z,100377.16
2022-12-15T17:37:35.570Z,100387.75
2022-12-15T17:40:03.167Z,100400.97
2022-12-15T17:42:29.766Z,100397.13
2022-12-15T17:44:56.260Z,100396.13
2022-12-15T17:47:24.141Z,100393.03
2022-12-15T17:49:50.583Z,100406.88
2022-12-15T17:52:16.994Z,100404.66
2022-12-15T17:54:43.710Z,100402.00
2022-12-15T17:57:13.448Z,100404.97
2022-12-15T17:59:39.906Z,100400.38
2022-12-15T18:02:07.078Z,100399.59
2022-12-15T18:04:33.639Z,100403.03
2022-12-15T18:07:02.329Z,100400.09
2022-12-15T18:09:29.572Z,100400.72
2022-12-15T18:11:56.180Z,100396.19
2022-12-15T18:14:22.903Z,100395.13
2022-12-15T18:16:49.618Z,100406.13
2022-12-15T18:19:16.249Z,100399.44
2022-12-15T18:21:42.843Z,100405.94
2022-12-15T18:24:19.184Z,100413.97
2022-12-15T18:26:45.605Z,100421.25
2022-12-15T18:29:14.227Z,100427.56
2022-12-15T18:31:41.852Z,100438.91
2022-12-15T18:34:13.450Z,100433.41
2022-12-15T18:36:40.111Z,100427.13
2022-12-15T18:39:23.452Z,100435.19
2022-12-15T18:41:51.087Z,100434.63
2022-12-15T18:44:25.250Z,100440.03
2022-12-15T18:46:52.265Z,100437.75
2022-12-15T18:49:19.274Z,100442.31
2022-12-15T18:51:47.113Z,100438.34
2022-12-15T18:54:25.265Z,100443.22
2022-12-15T18:56:51.964Z,100441.81
2022-12-15T18:59:18.979Z,100438.66
2022-12-15T19:01:48.172Z,100446.19
2022-12-15T19:04:15.483Z,100440.81
2022-12-15T19:06:42.250Z,100441.63
2022-12-15T19:09:20.147Z,100444.06
2022-12-15T19:12:16.707Z,100455.84
2022-12-15T19:14:44.641Z,100452.66
2022-12-15T19:17:33.094Z,100453.19
2022-12-15T19:20:18.548Z,100461.25
2022-12-15T19:22:46.849Z,100457.47
2022-12-15T19:25:25.527Z,100462.31
2022-12-15T19:27:58.423Z,100455.34
2022-12-15T19:30:31.015Z,100454.56
2022-12-15T19:32:57.450Z,100449.47
2022-12-15T19:35:24.854Z,100445.47
2022-12-15T19:37:54.881Z,100447.06
2022-12-15T19:40:27.287Z,100453.50
2022-12-15T19:42:55.558Z,100449.97
2022-12-15T19:45:25.066Z,100454.28
2022-12-15T19:47:51.594Z,100456.44
2022-12-15T19:50:21.559Z,100459.13
2022-12-15T19:52:51.461Z,100463.91
2022-12-15T19:55:23.547Z,100464.16
2022-12-15T19:57:50.012Z,100462.81
2022-12-15T20:00:21.645Z,100462.81
2022-12-15T20:02:51.345Z,100454.03
2022-12-15T20:05:19.302Z,100454.25
2022-12-15T20:07:46.974Z,100448.38
2022-12-15T20:10:32.799Z,100455.91
2022-12-15T20:13:00.957Z,100454.28
2022-12-15T20:15:27.751Z,100465.28
2022-12-15T20:17:57.610Z,100462.56
2022-12-15T20:20:27.072Z,100466.88
2022-12-15T20:22:56.096Z,100466.38
2022-12-15T20:25:29.514Z,100458.88
2022-12-15T20:27:56.879Z,100445.47
2022-12-15T20:30:26.735Z,100453.78
2022-12-15T20:32:53.660Z,100451.63
2022-12-15T20:35:22.678Z,100443.06
2022-12-15T20:37:49.564Z,100455.94
2022-12-15T20:40:25.242Z,100450.81
2022-12-15T20:42:52.986Z,100459.66
2022-12-15T20:45:22.109Z,100460.75
2022-12-15T20:47:51.182Z,100450.28
2022-12-15T20:50:23.812Z,100462.59
2022-12-15T20:52:50.366Z,100465.03
2022-12-15T20:55:18.915Z,100473.34
2022-12-15T20:57:45.601Z,100465.81
2022-12-15T21:00:17.788Z,100456.13
2022-12-15T21:02:45.555Z,100450.56
2022-12-15T21:05:17.687Z,100455.63
2022-12-15T21:07:45.338Z,100455.09
2022-12-15T21:10:13.921Z,100461.00
2022-12-15T21:12:42.588Z,100462.34
2022-12-15T21:15:16.382Z,100462.63
2022-12-15T21:17:43.257Z,100475.97
2022-12-15T21:20:11.181Z,100476.25
2022-12-15T21:22:37.667Z,100474.88
2022-12-15T21:25:04.611Z,100474.63
2022-12-15T21:27:31.133Z,100474.09
2022-12-15T21:29:57.548Z,100476.25
2022-12-15T21:32:24.131Z,100469.56
2022-12-15T21:34:51.864Z,100467.41
2022-12-15T21:37:28.413Z,100480.25
2022-12-15T21:39:56.090Z,100479.16
2022-12-15T21:42:22.845Z,100480.25
2022-12-15T21:44:49.247Z,100476.50
2022-12-15T21:47:26.031Z,100486.69
2022-12-15T21:49:52.740Z,100475.06
2022-12-15T21:52:19.803Z,100480.91
2022-12-15T21:54:46.289Z,100483.69
2022-12-15T21:57:12.870Z,100489.88
2022-12-15T21:59:39.607Z,100491.50
2022-12-15T22:02:24.843Z,100494.66
2022-12-15T22:04:51.885Z,100494.84
2022-12-15T22:07:18.629Z,100487.19
2022-12-15T22:09:45.074Z,100492.28
2022-12-15T22:12:23.867Z,100490.66
2022-12-15T22:14:50.436Z,100490.41
2022-12-15T22:17:22.245Z,100491.22
2022-12-15T22:19:48.623Z,100494.19
2022-12-15T22:22:15.529Z,100496.09
2022-12-15T22:24:42.567Z,100501.47
2022-12-15T22:27:20.886Z,100498.53
2022-12-15T22:29:49.069Z,100512.47
2022-12-15T22:32:16.966Z,100508.47
2022-12-15T22:34:44.536Z,100506.81
2022-12-15T22:37:10.957Z,100501.72
2022-12-15T22:39:37.325Z,100499.88
2022-12-15T22:42:04.812Z,100491.81
2022-12-15T22:44:34.236Z,100492.88
2022-12-15T22:47:02.427Z,100493.69
2022-12-15T22:49:36.402Z,100494.47
2022-12-15T22:52:03.622Z,100483.75
2022-12-15T22:54:31.913Z,100491.56
2022-12-15T22:57:04.271Z,100492.09
2022-12-15T22:59:37.817Z,100500.94
2022-12-15T23:02:05.112Z,100501.97
2022-12-15T23:04:32.234Z,100505.50
2022-12-15T23:07:01.864Z,100499.03
2022-12-15T23:09:28.584Z,100493.69
2022-12-15T23:11:55.589Z,100503.09
2022-12-15T23:14:44.887Z,100508.44
2022-12-15T23:17:12.988Z,100503.09
2022-12-15T23:19:43.914Z,100506.81
2022-12-15T23:22:10.656Z,100500.66
2022-12-15T23:24:37.087Z,100501.75
2022-12-15T23:27:03.607Z,100502.56
2022-12-15T23:29:30.285Z,100504.13
2022-12-15T23:31:57.151Z,100500.41
2022-12-15T23:34:23.695Z,100498.53
2022-12-15T23:36:50.285Z,100507.91
2022-12-15T23:39:16.760Z,100502.81
2022-12-15T23:41:43.113Z,100506.28
2022-12-15T23:44:09.685Z,100493.59
2022-12-15T23:46:36.165Z,100499.22
2022-12-15T23:49:02.622Z,100503.31
2022-12-15T23:51:29.056Z,100510.56
2022-12-15T23:53:55.446Z,100505.69
2022-12-15T23:56:27.125Z,100505.44
2022-12-15T23:58:56.578Z,100507.88
